Thompson-Nicola I , British Columbia

1:16 PM PDT on August 26, 2016 (GMT -0700)
Lytton | | Change Station

Elev 751 ft 50.22 °N, 121.58 °W | Updated 16 minutes ago

Clear
Clear
84 °F
Feels Like 84 °F
N
7
Wind Variable Wind from SSW

Today
High -- | Low -- °F
--% Chance of Precip.
Yesterday
High -- | Low -- °F
Precip. -- in
Pressure 29.83 in
Visibility 9.0 miles
Clouds Clear
Dew Point 45 °F
Humidity 25%
Rainfall 0.00 in
Snow Depth Not available.
6:12 AM 8:01 PM
Waning Crescent, 31% visible
METAR CWLY 262000Z AUTO 20006KT 080V240 9SM CLR 29/07 A2984 RMK SLP102 DENSITY ALT 2600FT
Pressure 29.83 in
Visibility 9.0 miles
Clouds Clear
Dew Point 45 °F
Humidity 25%
Rainfall 0.00 in
Snow Depth Not available.
6:12 AM 8:01 PM
Waning Crescent, 31% visible
METAR CWLY 262000Z AUTO 20006KT 080V240 9SM CLR 29/07 A2984 RMK SLP102 DENSITY ALT 2600FT

10-Day Weather Forecast

No radar image for this location.
×

Almanac

Astronomy

Aug. 26, 2016 Rise Set
Actual Time
Civil Twilight
Nautical Twilight
Astronomical Twilight
Moon
Length of Visible Light
Length of Day
Tomorrow will be .
, % of the Moon is Illuminated

Today's Extremes

Country Highs Country Lows

Community

WunderPhotos

Upload Photos

1,935,192 photos uploaded!

WunderBlog® & News

Nearby

Air Quality

  Air Quality AQ Index Pollutant
Not available.

Snow Depth

Station Depth Elevation

Earthquake Activity

City Distance Mag. Time & Date
Minimum magnitude displayed is 2.5.

Coastal Water Temperatures

Place Temperature

Stations

Nearby Weather Stations

Station Location Temp. Windchill Dew Point Humidity Wind Precip. Elev Updated Type
                   

Watches & Warnings

There are currently no watches in effect.